الصفحة الرئيسية
METAR-TAF:

METAR-TAF

مطار :

أردبيل, إيران

دائرة عرض: 38-19-35N, خط طول: 048-25-28E, ارتفاع: 1315 متر

مراقبة الطقس الحالي

تاريخ ووقت الإصدار 26 دقيقة قبل الساعة 04:30UTC
ريح 4 عقدة من الشمال الشرقي
درجة الحرارة -11°درجة مئوية
الرطوبة 78%
ضغط 1026 hPa
الرؤية 10 كم أو أكثر
الغيوم لا تقل 1500 م ولا وجود لمزنة ركامية السحاب الأسود

METAR: OITL 290430Z 05004KT CAVOK M11/M14 Q1026

زمن: 08:26 (04:56 UTC)

توقعات

تاريخ ووقت الإصدار 2ساعات و 56 دقيقة قبل الساعة 02:00UTC
التوقعات صالحة من29 الساعة 03 UTC إلى 29 الساعة 12 UTC
ريح 12 عقدة من الشرق/الشمال الشرقي
الرؤية: 8000 متر

TAF: OITL 290200Z 2903/2912 07012KT 8000 NSC

أرصاد الطقس والتوقعات من أكثر من 4000 مطار (تقارير الطقس للمطار METAR والتنبؤ بالطقس بالمطارTAF).

المحطات المتاحة هي النقط الصفراء والحمراء على الخريطة.

حرك المؤشر فوق النقطة لمعرفة اسم المحطة.

ثم انقر لمعرفة أرصاد وتوقعات الطقس.

لتغيير الخارطة: اضغط على الأزرار الخضراء مع رمز الصليب الأسود للتكبير. على الزر الأخضر مع شرطة للتصغير، أو على الأسهم الخضراء للخرائط المجاورة.


METAR-TAF: